Time;durP1;ratioP1;P1;durP2;ratioP2;P2;SDS_P1;SDS_P2;PMS_P1;PMS_P2;Temp;Humidity;BMP_temperature;BMP_pressure;BME280_temperature;BME280_humidity;BME280_pressure;Samples;Min_cycle;Max_cycle;Signal;HPM_P1;HPM_P2
2022/02/08 00:02:02;;;;;;;7.65;1.48;;;;;;;4.09;58.23;98590.13;9988474;29;20053;-76
2022/02/08 00:07:24;;;;;;;8.10;1.40;;;;;;;4.13;57.78;98598.09;9989544;29;20071;-77
2022/02/08 00:12:46;;;;;;;6.25;0.90;;;;;;;4.22;57.56;98600.44;9986545;29;20187;-76
2022/02/08 00:18:07;;;;;;;5.60;0.88;;;;;;;4.29;57.78;98605.34;10012585;29;20066;-76
2022/02/08 00:23:28;;;;;;;5.22;1.00;;;;;;;4.29;58.17;98613.63;10000012;29;20064;-76
2022/02/08 00:28:49;;;;;;;6.22;0.95;;;;;;;4.30;58.59;98607.56;9974417;29;20117;-76
2022/02/08 00:34:10;;;;;;;5.30;1.35;;;;;;;4.27;59.09;98627.25;9986896;29;20046;-77
2022/02/08 00:39:33;;;;;;;3.97;0.70;;;;;;;4.25;58.12;98622.25;9986858;29;20054;-76
2022/02/08 00:45:20;;;;;;;4.97;1.02;;;;;;;4.21;59.47;98632.88;9987317;29;20069;-76
2022/02/08 00:50:48;;;;;;;6.68;0.93;;;;;;;4.21;59.21;98641.16;10005133;29;20090;-77
2022/02/08 00:56:09;;;;;;;4.55;0.75;;;;;;;4.21;59.29;98643.19;9976044;29;20103;-77
2022/02/08 01:01:35;;;;;;;5.30;1.20;;;;;;;4.19;59.06;98631.91;9986147;29;20251;-77
2022/02/08 01:06:58;;;;;;;8.88;1.50;;;;;;;4.17;59.27;98640.00;9986587;29;20050;-76
2022/02/08 01:12:22;;;;;;;5.25;0.90;;;;;;;4.19;59.75;98645.72;9986935;29;20097;-76
2022/02/08 01:17:44;;;;;;;5.47;1.23;;;;;;;4.24;59.12;98653.16;10010331;29;20046;-77
2022/02/08 01:23:10;;;;;;;6.07;1.30;;;;;;;4.27;59.19;98660.41;9985342;29;20050;-76
2022/02/08 01:39:30;;;;;;;8.13;1.33;;;;;;;4.26;59.48;98675.50;9984375;29;20046;-76
2022/02/08 01:45:06;;;;;;;7.00;1.23;;;;;;;4.20;59.10;98678.38;9988543;29;20473;-76
2022/02/08 01:50:30;;;;;;;4.28;1.20;;;;;;;4.24;59.21;98667.72;9987337;29;20105;-76
2022/02/08 01:55:52;;;;;;;7.90;1.35;;;;;;;4.24;59.53;98664.22;9984336;29;20497;-76
2022/02/08 02:01:16;;;;;;;7.53;1.23;;;;;;;4.29;59.22;98661.38;9984428;29;20057;-76
2022/02/08 02:06:37;;;;;;;5.90;1.20;;;;;;;4.26;59.28;98667.97;9983499;29;20401;-76
2022/02/08 02:12:00;;;;;;;8.05;1.38;;;;;;;4.27;59.20;98677.75;9983958;29;20049;-76
2022/02/08 02:17:22;;;;;;;6.38;1.02;;;;;;;4.28;59.17;98690.28;9971224;29;20046;-76
2022/02/08 02:22:43;;;;;;;7.10;1.08;;;;;;;4.27;59.15;98696.34;9971271;29;20430;-76
2022/02/08 02:28:05;;;;;;;7.63;2.00;;;;;;;4.30;59.06;98692.50;9983100;29;20054;-76
2022/02/08 02:33:26;;;;;;;6.75;1.40;;;;;;;4.24;59.17;98684.31;9983004;29;20512;-77
2022/02/08 02:38:47;;;;;;;7.38;1.50;;;;;;;4.20;58.95;98678.38;9982392;29;20098;-76
2022/02/08 02:44:12;;;;;;;8.18;1.55;;;;;;;4.20;59.15;98683.16;9971197;29;20382;-76
2022/02/08 02:49:36;;;;;;;7.30;1.27;;;;;;;4.24;59.29;98691.84;9983606;29;20080;-77
2022/02/08 02:55:01;;;;;;;6.72;1.30;;;;;;;4.24;59.03;98691.84;9981304;29;20046;-76
2022/02/08 03:00:38;;;;;;;6.93;1.15;;;;;;;4.18;59.03;98691.97;9981012;29;20050;-77
2022/02/08 03:17:30;;;;;;;8.70;1.35;;;;;;;4.17;58.99;98686.97;9986468;29;20450;-77
2022/02/08 03:17:40;;;;;;;8.15;0.88;;;;;;;4.08;58.68;98696.41;9996202;29;20417;-76
2022/02/08 03:23:02;;;;;;;8.10;1.05;;;;;;;4.00;58.67;98706.59;9996716;29;20045;-76
2022/02/08 03:28:23;;;;;;;10.02;1.45;;;;;;;3.86;59.31;98699.53;9994043;29;20098;-77
2022/02/08 03:33:46;;;;;;;6.25;1.27;;;;;;;3.71;59.13;98700.75;9994645;29;20050;-76
2022/02/08 03:44:36;;;;;;;4.65;1.30;;;;;;;3.43;60.05;98711.47;9994981;29;20125;-76
2022/02/08 03:49:59;;;;;;;5.18;1.17;;;;;;;3.39;59.68;98711.03;9994751;29;20110;-76
2022/02/08 03:55:20;;;;;;;8.43;1.55;;;;;;;3.33;59.87;98718.63;9994532;29;20478;-76
2022/02/08 04:06:14;;;;;;;6.18;1.30;;;;;;;3.18;60.11;98713.53;10009239;29;20038;-76
2022/02/08 04:11:40;;;;;;;6.78;1.40;;;;;;;3.20;60.03;98721.31;9993569;29;20069;-76
2022/02/08 04:17:16;;;;;;;6.75;1.27;;;;;;;3.22;59.54;98727.06;9994516;29;20477;-77
2022/02/08 04:50:28;;;;;;;5.68;1.65;;;;;;;3.31;59.87;98715.66;9962296;29;20406;-79
2022/02/08 04:55:58;;;;;;;7.55;1.92;;;;;;;3.31;59.75;98721.16;9935062;29;20054;-78
2022/02/08 05:01:33;;;;;;;6.68;1.67;;;;;;;3.36;59.90;98714.81;9969801;29;20042;-78
2022/02/08 05:57:32;;;;;;;7.85;1.92;;;;;;;3.48;60.46;98707.13;10009159;29;20057;-78
2022/02/08 06:02:55;;;;;;;8.23;1.98;;;;;;;3.51;60.39;98695.78;10009028;29;20413;-77
2022/02/08 06:08:23;;;;;;;9.90;2.42;;;;;;;3.49;60.15;98701.09;9997051;29;20053;-78
2022/02/08 06:13:44;;;;;;;8.40;1.90;;;;;;;3.48;60.29;98713.41;9988458;29;20114;-78
2022/02/08 06:19:07;;;;;;;7.65;1.73;;;;;;;3.50;60.14;98716.38;9983617;29;20065;-78
2022/02/08 06:24:28;;;;;;;8.73;1.92;;;;;;;3.51;60.50;98681.25;9983235;29;20106;-76
2022/02/08 06:29:49;;;;;;;7.18;1.60;;;;;;;3.46;59.90;98682.81;10007916;29;20046;-74
2022/02/08 06:35:18;;;;;;;7.07;1.98;;;;;;;3.44;60.28;98694.38;9983028;29;20070;-78
2022/02/08 06:40:40;;;;;;;11.70;2.08;;;;;;;3.44;60.32;98699.16;9973775;29;20046;-78
2022/02/08 06:46:01;;;;;;;6.18;1.73;;;;;;;3.41;60.24;98697.44;9982558;29;20057;-78
2022/02/08 06:51:22;;;;;;;9.57;2.30;;;;;;;3.45;60.15;98689.59;9970326;29;20098;-78
2022/02/08 06:56:43;;;;;;;6.57;1.83;;;;;;;3.42;60.42;98677.59;9983737;29;20103;-78
2022/02/08 07:02:05;;;;;;;6.85;2.15;;;;;;;3.48;60.23;98688.56;9988505;29;20054;-80
2022/02/08 07:07:25;;;;;;;8.68;2.40;;;;;;;3.54;60.44;98694.72;9979876;29;20054;-80
2022/02/08 07:12:47;;;;;;;7.72;1.83;;;;;;;3.62;59.85;98686.59;9984539;29;20089;-79
2022/02/08 07:18:07;;;;;;;5.53;1.50;;;;;;;3.66;59.84;98679.47;10008206;29;20057;-78
2022/02/08 07:23:31;;;;;;;7.65;1.88;;;;;;;3.64;59.72;98682.03;9970046;29;20042;-77
2022/02/08 07:28:52;;;;;;;5.32;1.95;;;;;;;3.71;60.01;98684.19;9981779;29;20385;-77
2022/02/08 07:34:20;;;;;;;6.82;2.00;;;;;;;3.82;60.22;98682.53;10006663;29;20050;-76
2022/02/08 07:39:46;;;;;;;12.07;2.70;;;;;;;3.87;59.95;98690.00;9970778;29;20054;-78
2022/02/08 07:45:07;;;;;;;8.20;1.67;;;;;;;3.98;59.66;98670.47;9970052;29;20110;-77
2022/02/08 07:50:28;;;;;;;10.32;1.70;;;;;;;4.05;59.62;98686.41;10006701;29;20061;-77
2022/02/08 07:55:49;;;;;;;11.02;2.13;;;;;;;4.20;59.81;98686.66;9983186;29;20489;-76
2022/02/08 08:01:12;;;;;;;8.10;1.77;;;;;;;4.25;59.01;98698.91;9975452;29;20099;-77
2022/02/08 08:06:33;;;;;;;8.18;2.10;;;;;;;4.45;58.92;98684.47;9988714;29;20050;-77
2022/02/08 08:11:55;;;;;;;9.25;2.08;;;;;;;4.88;58.74;98675.09;10000138;29;20042;-76
2022/02/08 08:22:46;;;;;;;7.32;2.10;;;;;;;5.13;57.98;98681.13;10002645;29;20057;-78
2022/02/08 08:28:09;;;;;;;9.85;2.10;;;;;;;5.57;57.77;98675.88;10042863;29;20041;-81
2022/02/08 08:33:30;;;;;;;8.57;1.90;;;;;;;5.67;56.55;98668.59;10019044;29;20077;-76
2022/02/08 08:39:12;;;;;;;4.78;1.67;;;;;;;5.90;57.05;98649.41;9991884;29;20060;-77
2022/02/08 08:55:32;;;;;;;4.65;1.50;;;;;;;6.88;55.19;98657.66;9999001;29;20057;-77
2022/02/08 09:00:53;;;;;;;7.88;1.60;;;;;;;7.88;53.43;98641.97;10030295;29;20033;-83
2022/02/08 09:06:14;;;;;;;6.30;1.95;;;;;;;7.76;52.38;98640.88;10036647;29;20129;-80
2022/02/08 09:28:28;;;;;;;8.65;1.90;;;;;;;7.23;52.66;98668.53;10000812;29;20053;-79
2022/02/08 09:33:50;;;;;;;8.07;2.22;;;;;;;6.82;53.18;98653.56;9987439;29;20058;-80
2022/02/08 09:39:11;;;;;;;5.25;1.35;;;;;;;6.64;53.80;98671.94;9987842;29;20046;-77
2022/02/08 09:44:36;;;;;;;4.28;1.38;;;;;;;6.37;54.29;98660.34;9984421;29;20042;-77
2022/02/08 09:50:06;;;;;;;5.70;1.88;;;;;;;6.42;54.36;98667.75;9985053;29;20057;-76
2022/02/08 09:55:37;;;;;;;8.32;2.58;;;;;;;6.76;55.02;98661.31;10011651;29;20050;-83
2022/02/08 10:01:07;;;;;;;5.63;1.70;;;;;;;12.96;49.93;98662.78;9988148;29;20046;-80
2022/02/08 10:06:29;;;;;;;5.10;1.40;;;;;;;14.66;42.87;98670.38;10026543;29;20050;-78
2022/02/08 10:11:59;;;;;;;4.20;1.35;;;;;;;11.91;44.20;98650.06;10043137;29;20097;-83
2022/02/08 10:23:07;;;;;;;4.57;1.03;;;;;;;8.76;48.72;98658.97;10424210;24;1202971;-75
2022/02/08 10:28:51;;;;;;;6.20;0.95;;;;;;;8.07;49.93;98646.44;10050226;29;20029;-82
2022/02/08 10:40:07;;;;;;;3.63;1.20;;;;;;;7.85;51.98;98636.81;10050368;29;20464;-81
2022/02/08 10:45:36;;;;;;;4.88;1.40;;;;;;;8.12;51.69;98620.50;10028621;29;20052;-79
2022/02/08 10:50:59;;;;;;;5.25;1.15;;;;;;;8.66;50.98;98626.72;10046073;29;20481;-77
2022/02/08 10:56:28;;;;;;;3.88;1.30;;;;;;;15.66;40.94;98612.78;10047138;29;20133;-78
2022/02/08 11:02:07;;;;;;;4.10;1.17;;;;;;;14.55;39.67;98626.81;10021469;29;20056;-77
2022/02/08 11:13:16;;;;;;;2.70;1.10;;;;;;;13.41;41.94;98621.88;9960322;29;20043;-79
2022/02/08 11:18:58;;;;;;;4.38;0.90;;;;;;;12.11;42.58;98604.03;9960703;29;20074;-78
2022/02/08 11:24:38;;;;;;;2.13;0.57;;;;;;;11.01;44.14;98628.34;9973282;29;20066;-77
2022/02/08 11:30:11;;;;;;;3.05;0.73;;;;;;;9.82;46.15;98636.72;9961144;29;20046;-77
2022/02/08 11:52:21;;;;;;;2.60;0.70;;;;;;;8.51;49.98;98649.78;9963397;29;20402;-77
2022/02/08 11:58:35;;;;;;;2.38;0.50;;;;;;;8.41;50.64;98632.91;10001560;29;20057;-77
2022/02/08 12:04:40;;;;;;;2.33;0.60;;;;;;;8.60;51.21;98638.81;10005178;29;20094;-78
2022/02/08 12:09:28;;;;;;;2.25;0.63;;;;;;;8.42;51.45;98642.00;10013346;29;20088;-78
2022/02/08 12:55:33;;;;;;;1.27;0.50;;;;;;;7.80;55.69;98616.22;9965781;29;20031;-81
2022/02/08 14:20:16;;;;;;;1.33;0.40;;;;;;;8.25;55.24;98582.09;9997463;29;20480;-76
2022/02/08 14:30:49;;;;;;;1.20;0.22;;;;;;;8.20;55.11;98583.03;9971243;29;20054;-76
2022/02/08 15:10:02;;;;;;;1.35;0.43;;;;;;;7.56;56.77;98542.50;9989006;29;20054;-80
2022/02/08 15:20:52;;;;;;;1.92;0.30;;;;;;;7.55;57.25;98554.16;9997372;29;20057;-81
2022/02/08 15:26:26;;;;;;;0.47;0.20;;;;;;;7.51;57.38;98551.75;10046265;29;20053;-81
2022/02/08 15:31:50;;;;;;;0.25;0.10;;;;;;;7.50;57.55;98555.06;10010529;29;20125;-81
2022/02/08 15:37:11;;;;;;;0.97;0.20;;;;;;;7.58;57.84;98567.69;10009232;29;20046;-81
2022/02/08 15:42:34;;;;;;;0.90;0.40;;;;;;;7.43;57.73;98570.44;10004920;29;20046;-81
2022/02/08 15:47:58;;;;;;;0.47;0.30;;;;;;;7.37;58.20;98578.97;10006671;29;20050;-81
2022/02/08 16:05:15;;;;;;;1.05;0.30;;;;;;;7.29;58.68;98578.19;9872145;30;20056;-81
2022/02/08 16:11:30;;;;;;;0.90;0.30;;;;;;;7.18;59.19;98590.41;10016501;29;20045;-81
2022/02/08 16:50:48;;;;;;;1.40;0.40;;;;;;;6.89;61.15;98598.09;10034192;29;20057;-81
2022/02/08 16:56:09;;;;;;;0.80;0.30;;;;;;;6.89;61.16;98617.50;10035074;29;20057;-81
2022/02/08 17:01:30;;;;;;;0.65;0.40;;;;;;;6.92;61.45;98615.66;10022001;29;20054;-81
2022/02/08 17:06:51;;;;;;;0.98;0.43;;;;;;;6.93;61.59;98635.84;10024578;29;20040;-82
2022/02/08 17:51:10;;;;;;;0.90;0.40;;;;;;;6.95;62.46;98645.13;9999829;29;20056;-77
2022/02/08 17:56:56;;;;;;;1.77;0.68;;;;;;;6.92;62.81;98651.75;9988162;29;20049;-77
2022/02/08 18:02:21;;;;;;;1.67;0.60;;;;;;;6.94;62.93;98654.72;9984432;29;20068;-77
2022/02/08 18:07:42;;;;;;;1.47;0.60;;;;;;;6.93;63.25;98658.78;9987469;29;20053;-77
2022/02/08 18:13:10;;;;;;;1.45;0.70;;;;;;;6.94;62.95;98665.81;9984208;29;20417;-79
2022/02/08 18:18:37;;;;;;;2.20;0.90;;;;;;;6.91;63.39;98672.47;9984850;29;20049;-77
2022/02/08 19:16:13;;;;;;;3.38;0.82;;;;;;;6.86;64.60;98684.47;9994296;29;20062;-78
2022/02/08 19:23:13;;;;;;;2.58;1.17;;;;;;;6.90;64.92;98690.41;9948038;29;20076;-79
2022/02/08 19:29:08;;;;;;;2.50;0.80;;;;;;;6.76;65.04;98683.50;9914400;29;20072;-78
2022/02/08 19:35:03;;;;;;;2.20;1.02;;;;;;;6.72;65.30;98683.09;9924266;29;20075;-77
2022/02/08 19:41:24;;;;;;;2.75;0.90;;;;;;;6.74;65.36;98686.06;9924686;29;20130;-77
2022/02/08 19:48:27;;;;;;;2.15;0.85;;;;;;;6.70;65.46;98685.69;9933700;29;20054;-77
2022/02/08 19:54:22;;;;;;;2.78;0.80;;;;;;;6.64;65.60;98688.59;10014669;29;20062;-77
2022/02/08 20:09:29;;;;;;;2.63;0.85;;;;;;;6.59;65.93;98684.69;10029024;29;20478;-77
2022/02/08 20:16:30;;;;;;;2.72;1.20;;;;;;;6.48;66.31;98698.88;9912239;29;20051;-78
2022/02/08 20:22:21;;;;;;;4.15;0.70;;;;;;;6.38;66.40;98697.88;9902576;30;20176;-78
2022/02/08 20:36:26;;;;;;;2.65;0.90;;;;;;;6.21;67.11;98720.47;10027314;29;20060;-77
2022/02/08 20:42:24;;;;;;;3.05;1.10;;;;;;;6.31;67.17;98726.28;9987410;29;20083;-79
2022/02/08 20:47:46;;;;;;;2.47;0.90;;;;;;;6.39;66.87;98724.31;9987698;29;20046;-77
2022/02/08 20:53:33;;;;;;;1.83;0.80;;;;;;;6.42;66.69;98730.78;10001431;29;20430;-77
2022/02/08 21:09:44;;;;;;;2.42;0.80;;;;;;;6.59;67.11;98733.88;9998674;29;20054;-77
2022/02/08 21:15:05;;;;;;;2.10;0.80;;;;;;;6.56;67.01;98727.41;9986119;29;20122;-77
2022/02/08 21:20:26;;;;;;;2.53;1.00;;;;;;;6.50;67.36;98735.13;9998473;29;20046;-79
2022/02/08 21:25:52;;;;;;;2.00;0.80;;;;;;;6.51;67.20;98731.06;9986984;29;20046;-79
2022/02/08 21:47:57;;;;;;;2.35;0.88;;;;;;;6.42;68.14;98750.94;10005558;29;20046;-79
2022/02/08 21:53:20;;;;;;;1.88;0.68;;;;;;;6.42;67.92;98750.22;10000697;29;20174;-78
2022/02/08 21:58:51;;;;;;;1.67;0.60;;;;;;;6.41;67.85;98743.19;9977031;29;20038;-78
2022/02/08 22:04:12;;;;;;;1.52;0.60;;;;;;;6.48;67.91;98748.06;9984892;29;20049;-78
2022/02/08 22:09:35;;;;;;;1.98;0.60;;;;;;;6.59;68.04;98762.38;9984131;29;20504;-76
2022/02/08 22:21:01;;;;;;;2.90;0.65;;;;;;;6.68;67.71;98766.69;9996334;29;20068;-78
2022/02/08 22:31:48;;;;;;;1.42;0.35;;;;;;;6.80;67.80;98783.78;10008657;29;20053;-78
2022/02/08 22:37:18;;;;;;;1.67;0.60;;;;;;;6.80;67.48;98781.75;10008950;29;20050;-78
2022/02/08 22:42:45;;;;;;;2.15;0.55;;;;;;;6.82;67.56;98772.88;10009520;29;20046;-78
2022/02/08 22:48:09;;;;;;;1.48;0.50;;;;;;;6.85;67.69;98794.75;9995850;29;20046;-78
2022/02/08 22:53:30;;;;;;;1.02;0.40;;;;;;;6.88;67.74;98801.25;9995093;29;20045;-78
2022/02/08 22:58:52;;;;;;;1.90;0.40;;;;;;;6.90;67.40;98787.56;10007677;29;20060;-78
2022/02/08 23:04:16;;;;;;;1.00;0.40;;;;;;;6.93;67.28;98791.28;10007664;29;20054;-78
2022/02/08 23:09:44;;;;;;;0.80;0.30;;;;;;;6.95;67.39;98792.22;9983306;29;20473;-78
2022/02/08 23:37:28;;;;;;;1.02;0.30;;;;;;;6.59;67.94;98776.25;9968689;29;20057;-78
2022/02/08 23:42:53;;;;;;;1.00;0.30;;;;;;;6.56;68.08;98782.88;9951193;29;20420;-78
2022/02/08 23:48:22;;;;;;;0.80;0.40;;;;;;;6.58;67.89;98774.75;9952425;29;20512;-78
2022/02/08 23:53:47;;;;;;;2.75;0.40;;;;;;;6.49;67.76;98791.88;9952953;29;20481;-78
2022/02/08 23:59:13;;;;;;;0.60;0.30;;;;;;;6.34;68.53;98783.41;9964143;29;20047;-78
